sensor_id;sensor_type;location;lat;lon;timestamp;temperature;humidity
2024;DHT22;1016;48.770;9.154;2023-09-19T00:00:38;21.20;99.90
2024;DHT22;1016;48.770;9.154;2023-09-19T00:03:05;21.20;99.90
2024;DHT22;1016;48.770;9.154;2023-09-19T00:05:34;21.30;99.90
2024;DHT22;1016;48.770;9.154;2023-09-19T00:08:00;21.30;99.90
2024;DHT22;1016;48.770;9.154;2023-09-19T00:10:28;21.20;99.90
2024;DHT22;1016;48.770;9.154;2023-09-19T00:12:57;21.20;99.90
2024;DHT22;1016;48.770;9.154;2023-09-19T00:15:24;21.20;99.90
2024;DHT22;1016;48.770;9.154;2023-09-19T00:17:52;21.20;99.90
2024;DHT22;1016;48.770;9.154;2023-09-19T00:20:18;21.20;99.90
2024;DHT22;1016;48.770;9.154;2023-09-19T00:22:45;21.30;99.90
2024;DHT22;1016;48.770;9.154;2023-09-19T00:25:11;21.40;99.90
2024;DHT22;1016;48.770;9.154;2023-09-19T00:27:41;21.30;99.90
2024;DHT22;1016;48.770;9.154;2023-09-19T00:30:08;21.20;99.90
2024;DHT22;1016;48.770;9.154;2023-09-19T00:32:40;21.20;99.90
2024;DHT22;1016;48.770;9.154;2023-09-19T00:35:06;21.30;99.90
2024;DHT22;1016;48.770;9.154;2023-09-19T00:37:35;21.20;99.90
2024;DHT22;1016;48.770;9.154;2023-09-19T00:40:01;21.20;99.90
2024;DHT22;1016;48.770;9.154;2023-09-19T00:42:27;21.10;99.90
2024;DHT22;1016;48.770;9.154;2023-09-19T00:44:53;21.30;99.90
2024;DHT22;1016;48.770;9.154;2023-09-19T00:47:18;21.20;99.90
2024;DHT22;1016;48.770;9.154;2023-09-19T00:49:45;21.10;99.90
2024;DHT22;1016;48.770;9.154;2023-09-19T00:52:16;21.30;99.90
2024;DHT22;1016;48.770;9.154;2023-09-19T00:54:46;21.30;99.90
2024;DHT22;1016;48.770;9.154;2023-09-19T00:57:12;21.30;99.90
2024;DHT22;1016;48.770;9.154;2023-09-19T00:59:41;21.10;99.90
2024;DHT22;1016;48.770;9.154;2023-09-19T01:02:07;21.30;99.90
2024;DHT22;1016;48.770;9.154;2023-09-19T01:04:34;21.10;99.90
2024;DHT22;1016;48.770;9.154;2023-09-19T01:06:59;21.30;99.90
2024;DHT22;1016;48.770;9.154;2023-09-19T01:09:25;21.10;99.90
2024;DHT22;1016;48.770;9.154;2023-09-19T01:11:53;21.30;99.90
2024;DHT22;1016;48.770;9.154;2023-09-19T01:17:32;21.10;99.90
2024;DHT22;1016;48.770;9.154;2023-09-19T01:22:52;21.10;99.90
2024;DHT22;1016;48.770;9.154;2023-09-19T01:25:58;21.10;99.90
2024;DHT22;1016;48.770;9.154;2023-09-19T01:31:35;21.10;99.90
2024;DHT22;1016;48.770;9.154;2023-09-19T01:34:03;21.10;99.90
2024;DHT22;1016;48.770;9.154;2023-09-19T01:36:37;21.10;99.90
2024;DHT22;1016;48.770;9.154;2023-09-19T01:39:05;21.10;99.90
2024;DHT22;1016;48.770;9.154;2023-09-19T01:44:57;21.20;99.90
2024;DHT22;1016;48.770;9.154;2023-09-19T01:48:10;21.10;99.90
2024;DHT22;1016;48.770;9.154;2023-09-19T01:53:30;21.10;99.90
2024;DHT22;1016;48.770;9.154;2023-09-19T01:55:59;21.10;99.90
2024;DHT22;1016;48.770;9.154;2023-09-19T01:58:27;21.10;99.90
2024;DHT22;1016;48.770;9.154;2023-09-19T02:00:56;21.10;99.90
2024;DHT22;1016;48.770;9.154;2023-09-19T02:03:31;21.20;99.90
2024;DHT22;1016;48.770;9.154;2023-09-19T02:05:56;21.20;99.90
2024;DHT22;1016;48.770;9.154;2023-09-19T02:08:23;21.20;99.90
2024;DHT22;1016;48.770;9.154;2023-09-19T02:10:52;21.10;99.90
2024;DHT22;1016;48.770;9.154;2023-09-19T02:13:22;21.20;99.90
2024;DHT22;1016;48.770;9.154;2023-09-19T02:15:51;21.10;99.90
2024;DHT22;1016;48.770;9.154;2023-09-19T02:18:17;21.10;99.90
2024;DHT22;1016;48.770;9.154;2023-09-19T02:20:43;21.10;99.90
2024;DHT22;1016;48.770;9.154;2023-09-19T02:23:09;21.20;99.90
2024;DHT22;1016;48.770;9.154;2023-09-19T02:25:35;21.10;99.90
2024;DHT22;1016;48.770;9.154;2023-09-19T02:28:01;21.20;99.90
2024;DHT22;1016;48.770;9.154;2023-09-19T02:30:28;21.10;99.90
2024;DHT22;1016;48.770;9.154;2023-09-19T02:32:55;21.10;99.90
2024;DHT22;1016;48.770;9.154;2023-09-19T02:35:21;21.10;99.90
2024;DHT22;1016;48.770;9.154;2023-09-19T02:37:47;21.10;99.90
2024;DHT22;1016;48.770;9.154;2023-09-19T02:40:13;21.10;99.90
2024;DHT22;1016;48.770;9.154;2023-09-19T02:42:48;21.10;99.90
2024;DHT22;1016;48.770;9.154;2023-09-19T02:45:18;21.10;99.90
2024;DHT22;1016;48.770;9.154;2023-09-19T02:47:45;21.00;99.90
2024;DHT22;1016;48.770;9.154;2023-09-19T02:50:13;21.00;99.90
2024;DHT22;1016;48.770;9.154;2023-09-19T02:52:45;21.00;99.90
2024;DHT22;1016;48.770;9.154;2023-09-19T02:55:15;21.00;99.90
2024;DHT22;1016;48.770;9.154;2023-09-19T02:57:53;21.00;99.90
2024;DHT22;1016;48.770;9.154;2023-09-19T03:00:23;21.20;99.90
2024;DHT22;1016;48.770;9.154;2023-09-19T03:05:15;21.20;99.90
2024;DHT22;1016;48.770;9.154;2023-09-19T03:07:41;21.00;99.90
2024;DHT22;1016;48.770;9.154;2023-09-19T03:10:08;21.00;99.90
2024;DHT22;1016;48.770;9.154;2023-09-19T03:12:35;21.00;99.90
2024;DHT22;1016;48.770;9.154;2023-09-19T03:15:01;21.10;99.90
2024;DHT22;1016;48.770;9.154;2023-09-19T03:17:27;20.90;99.90
2024;DHT22;1016;48.770;9.154;2023-09-19T03:19:53;21.10;99.90
2024;DHT22;1016;48.770;9.154;2023-09-19T03:22:19;21.00;99.90
2024;DHT22;1016;48.770;9.154;2023-09-19T03:24:46;21.00;99.90
2024;DHT22;1016;48.770;9.154;2023-09-19T03:27:12;21.10;99.90
2024;DHT22;1016;48.770;9.154;2023-09-19T03:29:41;21.10;99.90
2024;DHT22;1016;48.770;9.154;2023-09-19T03:32:10;21.00;99.90
2024;DHT22;1016;48.770;9.154;2023-09-19T03:34:37;21.00;99.90
2024;DHT22;1016;48.770;9.154;2023-09-19T03:37:06;21.00;99.90
2024;DHT22;1016;48.770;9.154;2023-09-19T03:39:32;21.00;99.90
2024;DHT22;1016;48.770;9.154;2023-09-19T03:41:58;21.00;99.90
2024;DHT22;1016;48.770;9.154;2023-09-19T03:44:23;21.00;99.90
2024;DHT22;1016;48.770;9.154;2023-09-19T03:46:49;21.00;99.90
2024;DHT22;1016;48.770;9.154;2023-09-19T03:49:14;21.00;99.90
2024;DHT22;1016;48.770;9.154;2023-09-19T03:51:40;21.00;99.90
2024;DHT22;1016;48.770;9.154;2023-09-19T03:54:08;20.90;99.90
2024;DHT22;1016;48.770;9.154;2023-09-19T03:56:33;21.00;99.90
2024;DHT22;1016;48.770;9.154;2023-09-19T03:58:59;21.10;99.90
2024;DHT22;1016;48.770;9.154;2023-09-19T04:01:27;21.00;99.90
2024;DHT22;1016;48.770;9.154;2023-09-19T04:03:53;21.00;99.90
2024;DHT22;1016;48.770;9.154;2023-09-19T04:06:19;21.10;99.90
2024;DHT22;1016;48.770;9.154;2023-09-19T04:08:45;21.00;99.90
2024;DHT22;1016;48.770;9.154;2023-09-19T04:11:12;21.10;99.90
2024;DHT22;1016;48.770;9.154;2023-09-19T04:13:38;21.00;99.90
2024;DHT22;1016;48.770;9.154;2023-09-19T04:16:04;21.00;99.90
2024;DHT22;1016;48.770;9.154;2023-09-19T04:18:30;21.20;99.90
2024;DHT22;1016;48.770;9.154;2023-09-19T04:20:59;21.10;99.90
2024;DHT22;1016;48.770;9.154;2023-09-19T04:23:28;21.00;99.90
2024;DHT22;1016;48.770;9.154;2023-09-19T04:25:53;21.10;99.90
2024;DHT22;1016;48.770;9.154;2023-09-19T04:28:19;21.00;99.90
2024;DHT22;1016;48.770;9.154;2023-09-19T04:30:45;21.00;99.90
2024;DHT22;1016;48.770;9.154;2023-09-19T04:33:10;21.00;99.90
2024;DHT22;1016;48.770;9.154;2023-09-19T04:35:40;21.00;99.90
2024;DHT22;1016;48.770;9.154;2023-09-19T04:38:08;21.10;99.90
2024;DHT22;1016;48.770;9.154;2023-09-19T04:40:37;21.20;99.90
2024;DHT22;1016;48.770;9.154;2023-09-19T04:43:05;21.00;99.90
2024;DHT22;1016;48.770;9.154;2023-09-19T04:45:31;21.10;99.90
2024;DHT22;1016;48.770;9.154;2023-09-19T04:47:57;21.00;99.90
2024;DHT22;1016;48.770;9.154;2023-09-19T04:50:22;21.00;99.90
2024;DHT22;1016;48.770;9.154;2023-09-19T04:52:52;21.00;99.90
2024;DHT22;1016;48.770;9.154;2023-09-19T04:55:18;21.10;99.90
2024;DHT22;1016;48.770;9.154;2023-09-19T04:57:51;21.00;99.90
2024;DHT22;1016;48.770;9.154;2023-09-19T05:00:20;21.00;99.90
2024;DHT22;1016;48.770;9.154;2023-09-19T05:02:54;21.00;99.90
2024;DHT22;1016;48.770;9.154;2023-09-19T05:05:22;21.00;99.90
2024;DHT22;1016;48.770;9.154;2023-09-19T05:07:50;21.00;99.90
2024;DHT22;1016;48.770;9.154;2023-09-19T05:10:17;21.00;99.90
2024;DHT22;1016;48.770;9.154;2023-09-19T05:12:44;21.10;99.90
2024;DHT22;1016;48.770;9.154;2023-09-19T05:15:13;21.10;99.90
2024;DHT22;1016;48.770;9.154;2023-09-19T05:17:48;21.10;99.90
2024;DHT22;1016;48.770;9.154;2023-09-19T05:20:15;21.10;99.90
2024;DHT22;1016;48.770;9.154;2023-09-19T05:22:50;20.90;99.90
2024;DHT22;1016;48.770;9.154;2023-09-19T05:25:16;21.00;99.90
2024;DHT22;1016;48.770;9.154;2023-09-19T05:27:44;20.90;99.90
2024;DHT22;1016;48.770;9.154;2023-09-19T05:30:10;21.00;99.90
2024;DHT22;1016;48.770;9.154;2023-09-19T05:32:36;20.90;99.90
2024;DHT22;1016;48.770;9.154;2023-09-19T05:35:01;20.90;99.90
2024;DHT22;1016;48.770;9.154;2023-09-19T05:37:28;20.90;99.90
2024;DHT22;1016;48.770;9.154;2023-09-19T05:39:55;20.90;99.90
2024;DHT22;1016;48.770;9.154;2023-09-19T05:42:21;21.00;99.90
2024;DHT22;1016;48.770;9.154;2023-09-19T05:44:46;20.90;99.90
2024;DHT22;1016;48.770;9.154;2023-09-19T05:47:12;20.90;99.90
2024;DHT22;1016;48.770;9.154;2023-09-19T05:49:38;20.90;99.90
2024;DHT22;1016;48.770;9.154;2023-09-19T05:52:07;20.90;99.90
2024;DHT22;1016;48.770;9.154;2023-09-19T05:54:42;21.00;99.90
2024;DHT22;1016;48.770;9.154;2023-09-19T05:57:08;20.80;99.90
2024;DHT22;1016;48.770;9.154;2023-09-19T05:59:36;20.90;99.90
2024;DHT22;1016;48.770;9.154;2023-09-19T06:02:02;20.80;99.90
2024;DHT22;1016;48.770;9.154;2023-09-19T06:04:30;20.80;99.90
2024;DHT22;1016;48.770;9.154;2023-09-19T06:06:56;21.00;99.90
2024;DHT22;1016;48.770;9.154;2023-09-19T06:09:23;21.00;99.90
2024;DHT22;1016;48.770;9.154;2023-09-19T06:11:49;20.80;99.90
2024;DHT22;1016;48.770;9.154;2023-09-19T06:14:14;20.80;99.90
2024;DHT22;1016;48.770;9.154;2023-09-19T06:16:43;20.80;99.90
2024;DHT22;1016;48.770;9.154;2023-09-19T06:19:08;20.80;99.90
2024;DHT22;1016;48.770;9.154;2023-09-19T06:21:36;20.80;99.90
2024;DHT22;1016;48.770;9.154;2023-09-19T06:24:02;20.80;99.90
2024;DHT22;1016;48.770;9.154;2023-09-19T06:26:31;20.80;99.90
2024;DHT22;1016;48.770;9.154;2023-09-19T06:28:57;20.90;99.90
2024;DHT22;1016;48.770;9.154;2023-09-19T06:31:25;20.90;99.90
2024;DHT22;1016;48.770;9.154;2023-09-19T06:33:52;20.90;99.90
2024;DHT22;1016;48.770;9.154;2023-09-19T06:36:18;20.70;99.90
2024;DHT22;1016;48.770;9.154;2023-09-19T06:38:44;20.80;99.90
2024;DHT22;1016;48.770;9.154;2023-09-19T06:41:10;20.80;99.90
2024;DHT22;1016;48.770;9.154;2023-09-19T06:43:37;20.70;99.90
2024;DHT22;1016;48.770;9.154;2023-09-19T06:46:04;20.80;99.90
2024;DHT22;1016;48.770;9.154;2023-09-19T06:48:32;20.80;99.90
2024;DHT22;1016;48.770;9.154;2023-09-19T06:51:02;20.80;99.90
2024;DHT22;1016;48.770;9.154;2023-09-19T06:53:33;20.70;99.90
2024;DHT22;1016;48.770;9.154;2023-09-19T06:56:02;20.70;99.90
2024;DHT22;1016;48.770;9.154;2023-09-19T06:58:28;20.70;99.90
2024;DHT22;1016;48.770;9.154;2023-09-19T07:00:56;20.70;99.90
2024;DHT22;1016;48.770;9.154;2023-09-19T07:03:22;20.80;99.90
2024;DHT22;1016;48.770;9.154;2023-09-19T07:05:51;20.80;99.90
2024;DHT22;1016;48.770;9.154;2023-09-19T07:08:18;20.80;99.90
2024;DHT22;1016;48.770;9.154;2023-09-19T07:10:46;20.70;99.90
2024;DHT22;1016;48.770;9.154;2023-09-19T07:13:16;20.80;99.90
2024;DHT22;1016;48.770;9.154;2023-09-19T07:15:44;20.80;99.90
2024;DHT22;1016;48.770;9.154;2023-09-19T07:18:17;20.70;99.90
2024;DHT22;1016;48.770;9.154;2023-09-19T07:20:44;20.80;99.90
2024;DHT22;1016;48.770;9.154;2023-09-19T07:23:19;20.80;99.90
2024;DHT22;1016;48.770;9.154;2023-09-19T07:25:52;20.70;99.90
2024;DHT22;1016;48.770;9.154;2023-09-19T07:28:23;20.70;99.90
2024;DHT22;1016;48.770;9.154;2023-09-19T07:31:01;20.70;99.90
2024;DHT22;1016;48.770;9.154;2023-09-19T07:33:28;20.80;99.90
2024;DHT22;1016;48.770;9.154;2023-09-19T07:35:57;20.80;99.90
2024;DHT22;1016;48.770;9.154;2023-09-19T07:38:23;20.80;99.90
2024;DHT22;1016;48.770;9.154;2023-09-19T07:40:48;20.50;99.90
2024;DHT22;1016;48.770;9.154;2023-09-19T07:43:14;20.70;99.90
2024;DHT22;1016;48.770;9.154;2023-09-19T07:45:40;20.70;99.90
2024;DHT22;1016;48.770;9.154;2023-09-19T07:48:07;20.70;99.90
2024;DHT22;1016;48.770;9.154;2023-09-19T07:50:39;20.70;99.90
2024;DHT22;1016;48.770;9.154;2023-09-19T07:53:05;20.80;99.90
2024;DHT22;1016;48.770;9.154;2023-09-19T07:55:31;20.70;99.90
2024;DHT22;1016;48.770;9.154;2023-09-19T07:58:02;20.50;99.90
2024;DHT22;1016;48.770;9.154;2023-09-19T08:00:30;20.70;99.90
2024;DHT22;1016;48.770;9.154;2023-09-19T08:03:00;20.80;99.90
2024;DHT22;1016;48.770;9.154;2023-09-19T08:05:26;20.70;99.90
2024;DHT22;1016;48.770;9.154;2023-09-19T08:07:52;20.90;99.90
2024;DHT22;1016;48.770;9.154;2023-09-19T08:10:19;20.90;99.90
2024;DHT22;1016;48.770;9.154;2023-09-19T08:12:47;20.70;99.90
2024;DHT22;1016;48.770;9.154;2023-09-19T08:15:14;20.90;99.90
2024;DHT22;1016;48.770;9.154;2023-09-19T08:17:40;20.90;99.90
2024;DHT22;1016;48.770;9.154;2023-09-19T08:20:07;20.90;99.90
2024;DHT22;1016;48.770;9.154;2023-09-19T08:22:33;20.80;99.90
2024;DHT22;1016;48.770;9.154;2023-09-19T08:25:00;20.60;99.90
2024;DHT22;1016;48.770;9.154;2023-09-19T08:27:30;20.80;99.90
2024;DHT22;1016;48.770;9.154;2023-09-19T08:29:56;20.90;99.90
2024;DHT22;1016;48.770;9.154;2023-09-19T08:32:22;20.90;99.90
2024;DHT22;1016;48.770;9.154;2023-09-19T08:34:50;20.80;99.90
2024;DHT22;1016;48.770;9.154;2023-09-19T08:37:22;20.90;99.90
2024;DHT22;1016;48.770;9.154;2023-09-19T08:39:48;20.80;99.90
2024;DHT22;1016;48.770;9.154;2023-09-19T08:42:13;21.00;99.90
2024;DHT22;1016;48.770;9.154;2023-09-19T08:44:40;21.00;99.90
2024;DHT22;1016;48.770;9.154;2023-09-19T08:47:17;20.90;99.90
2024;DHT22;1016;48.770;9.154;2023-09-19T08:52:43;20.90;99.90
2024;DHT22;1016;48.770;9.154;2023-09-19T08:55:14;20.90;99.90
2024;DHT22;1016;48.770;9.154;2023-09-19T08:57:46;21.00;99.90
2024;DHT22;1016;48.770;9.154;2023-09-19T09:00:16;20.90;99.90
2024;DHT22;1016;48.770;9.154;2023-09-19T09:02:48;21.00;99.90
2024;DHT22;1016;48.770;9.154;2023-09-19T09:05:16;20.90;99.90
2024;DHT22;1016;48.770;9.154;2023-09-19T09:07:49;21.00;99.90
2024;DHT22;1016;48.770;9.154;2023-09-19T09:10:20;20.90;99.90
2024;DHT22;1016;48.770;9.154;2023-09-19T09:12:51;21.00;99.90
2024;DHT22;1016;48.770;9.154;2023-09-19T09:15:19;20.90;99.90
2024;DHT22;1016;48.770;9.154;2023-09-19T09:17:50;20.90;99.90
2024;DHT22;1016;48.770;9.154;2023-09-19T09:20:18;20.90;99.90
2024;DHT22;1016;48.770;9.154;2023-09-19T09:22:55;21.10;99.90
2024;DHT22;1016;48.770;9.154;2023-09-19T09:25:55;21.00;99.90
2024;DHT22;1016;48.770;9.154;2023-09-19T09:28:29;21.00;99.90
2024;DHT22;1016;48.770;9.154;2023-09-19T09:30:56;21.00;99.90
2024;DHT22;1016;48.770;9.154;2023-09-19T09:33:23;21.00;99.90
2024;DHT22;1016;48.770;9.154;2023-09-19T09:38:27;21.10;99.90
2024;DHT22;1016;48.770;9.154;2023-09-19T09:40:55;21.10;99.90
2024;DHT22;1016;48.770;9.154;2023-09-19T09:43:41;21.10;99.90
2024;DHT22;1016;48.770;9.154;2023-09-19T09:46:15;20.90;99.90
2024;DHT22;1016;48.770;9.154;2023-09-19T09:49:04;21.00;99.90
2024;DHT22;1016;48.770;9.154;2023-09-19T09:52:06;21.00;99.90
2024;DHT22;1016;48.770;9.154;2023-09-19T09:54:59;21.00;99.90
2024;DHT22;1016;48.770;9.154;2023-09-19T09:57:26;21.00;99.90
2024;DHT22;1016;48.770;9.154;2023-09-19T09:59:56;21.20;99.90
2024;DHT22;1016;48.770;9.154;2023-09-19T10:02:37;21.00;99.90
2024;DHT22;1016;48.770;9.154;2023-09-19T10:05:14;21.20;99.90
2024;DHT22;1016;48.770;9.154;2023-09-19T10:07:47;21.10;99.90
2024;DHT22;1016;48.770;9.154;2023-09-19T10:12:58;21.10;99.90
2024;DHT22;1016;48.770;9.154;2023-09-19T10:15:31;21.20;99.90
2024;DHT22;1016;48.770;9.154;2023-09-19T10:18:00;21.10;99.90
2024;DHT22;1016;48.770;9.154;2023-09-19T10:20:30;21.10;99.90
2024;DHT22;1016;48.770;9.154;2023-09-19T10:22:56;21.20;99.90
2024;DHT22;1016;48.770;9.154;2023-09-19T10:25:27;21.20;99.90
2024;DHT22;1016;48.770;9.154;2023-09-19T10:28:02;21.10;99.90
2024;DHT22;1016;48.770;9.154;2023-09-19T10:30:32;21.20;99.90
2024;DHT22;1016;48.770;9.154;2023-09-19T10:33:03;21.30;99.90
2024;DHT22;1016;48.770;9.154;2023-09-19T10:35:29;21.20;99.90
2024;DHT22;1016;48.770;9.154;2023-09-19T10:38:00;21.20;99.90
2024;DHT22;1016;48.770;9.154;2023-09-19T10:40:28;21.30;99.90
2024;DHT22;1016;48.770;9.154;2023-09-19T10:43:04;21.20;99.90
2024;DHT22;1016;48.770;9.154;2023-09-19T10:45:34;21.20;99.90
2024;DHT22;1016;48.770;9.154;2023-09-19T10:48:04;21.30;99.90
2024;DHT22;1016;48.770;9.154;2023-09-19T10:50:35;21.20;99.90
2024;DHT22;1016;48.770;9.154;2023-09-19T10:53:04;21.30;99.90
2024;DHT22;1016;48.770;9.154;2023-09-19T10:55:41;21.30;99.90
2024;DHT22;1016;48.770;9.154;2023-09-19T10:58:08;21.20;99.90
2024;DHT22;1016;48.770;9.154;2023-09-19T11:00:56;21.20;99.90
2024;DHT22;1016;48.770;9.154;2023-09-19T11:03:38;21.40;99.90
2024;DHT22;1016;48.770;9.154;2023-09-19T11:06:16;21.40;99.90
2024;DHT22;1016;48.770;9.154;2023-09-19T11:09:00;21.30;99.90
2024;DHT22;1016;48.770;9.154;2023-09-19T11:11:46;21.30;99.90
2024;DHT22;1016;48.770;9.154;2023-09-19T11:30:50;21.30;99.90
2024;DHT22;1016;48.770;9.154;2023-09-19T11:33:19;21.30;99.90
2024;DHT22;1016;48.770;9.154;2023-09-19T11:41:36;21.30;99.90
2024;DHT22;1016;48.770;9.154;2023-09-19T11:49:50;21.30;99.90
2024;DHT22;1016;48.770;9.154;2023-09-19T11:52:22;21.30;99.90
2024;DHT22;1016;48.770;9.154;2023-09-19T11:54:57;21.30;99.90
2024;DHT22;1016;48.770;9.154;2023-09-19T11:57:25;21.30;99.90
2024;DHT22;1016;48.770;9.154;2023-09-19T12:00:02;21.40;99.90
2024;DHT22;1016;48.770;9.154;2023-09-19T12:02:46;21.40;99.90
2024;DHT22;1016;48.770;9.154;2023-09-19T12:05:28;21.40;99.90
2024;DHT22;1016;48.770;9.154;2023-09-19T12:07:55;21.30;99.90
2024;DHT22;1016;48.770;9.154;2023-09-19T12:10:22;21.40;99.90
2024;DHT22;1016;48.770;9.154;2023-09-19T12:12:49;21.40;99.90
2024;DHT22;1016;48.770;9.154;2023-09-19T12:15:17;21.50;99.90
2024;DHT22;1016;48.770;9.154;2023-09-19T12:17:48;21.60;99.90
2024;DHT22;1016;48.770;9.154;2023-09-19T12:20:14;21.50;99.90
2024;DHT22;1016;48.770;9.154;2023-09-19T12:22:46;21.50;99.90
2024;DHT22;1016;48.770;9.154;2023-09-19T12:25:15;21.50;99.90
2024;DHT22;1016;48.770;9.154;2023-09-19T12:27:49;21.60;99.90
2024;DHT22;1016;48.770;9.154;2023-09-19T12:30:19;21.60;99.90
2024;DHT22;1016;48.770;9.154;2023-09-19T12:33:04;21.50;99.90
2024;DHT22;1016;48.770;9.154;2023-09-19T12:35:35;21.50;99.90
2024;DHT22;1016;48.770;9.154;2023-09-19T12:38:01;21.50;99.90
2024;DHT22;1016;48.770;9.154;2023-09-19T12:40:32;21.50;99.90
2024;DHT22;1016;48.770;9.154;2023-09-19T12:42:59;21.40;99.90
2024;DHT22;1016;48.770;9.154;2023-09-19T12:45:31;21.80;99.90
2024;DHT22;1016;48.770;9.154;2023-09-19T12:48:22;21.60;99.90
2024;DHT22;1016;48.770;9.154;2023-09-19T12:53:44;21.60;99.90
2024;DHT22;1016;48.770;9.154;2023-09-19T12:56:15;21.70;99.90
2024;DHT22;1016;48.770;9.154;2023-09-19T13:01:20;21.70;99.90
2024;DHT22;1016;48.770;9.154;2023-09-19T13:03:46;21.70;99.90
2024;DHT22;1016;48.770;9.154;2023-09-19T13:06:40;21.80;99.90
2024;DHT22;1016;48.770;9.154;2023-09-19T13:09:12;21.90;99.90
2024;DHT22;1016;48.770;9.154;2023-09-19T13:11:40;21.70;99.90
2024;DHT22;1016;48.770;9.154;2023-09-19T13:14:22;21.70;99.90
2024;DHT22;1016;48.770;9.154;2023-09-19T13:19:52;21.70;99.90
2024;DHT22;1016;48.770;9.154;2023-09-19T13:22:44;21.70;99.90
2024;DHT22;1016;48.770;9.154;2023-09-19T13:25:27;21.70;99.90
2024;DHT22;1016;48.770;9.154;2023-09-19T13:27:57;21.80;99.90
2024;DHT22;1016;48.770;9.154;2023-09-19T13:30:26;21.80;99.90
2024;DHT22;1016;48.770;9.154;2023-09-19T13:33:14;21.90;99.90
2024;DHT22;1016;48.770;9.154;2023-09-19T13:35:46;22.00;99.90
2024;DHT22;1016;48.770;9.154;2023-09-19T13:38:14;21.90;99.90
2024;DHT22;1016;48.770;9.154;2023-09-19T13:40:42;21.80;99.90
2024;DHT22;1016;48.770;9.154;2023-09-19T13:43:08;21.90;99.90
2024;DHT22;1016;48.770;9.154;2023-09-19T13:45:36;21.90;99.90
2024;DHT22;1016;48.770;9.154;2023-09-19T13:48:07;21.90;99.90
2024;DHT22;1016;48.770;9.154;2023-09-19T13:50:34;21.90;99.90
2024;DHT22;1016;48.770;9.154;2023-09-19T13:53:02;22.00;99.90
2024;DHT22;1016;48.770;9.154;2023-09-19T13:55:33;21.90;99.90
2024;DHT22;1016;48.770;9.154;2023-09-19T13:58:09;22.00;99.90
2024;DHT22;1016;48.770;9.154;2023-09-19T14:00:38;21.90;99.90
2024;DHT22;1016;48.770;9.154;2023-09-19T14:03:04;22.00;99.90
2024;DHT22;1016;48.770;9.154;2023-09-19T14:05:30;22.00;99.90
2024;DHT22;1016;48.770;9.154;2023-09-19T14:07:56;22.10;99.90
2024;DHT22;1016;48.770;9.154;2023-09-19T14:10:25;22.10;99.90
2024;DHT22;1016;48.770;9.154;2023-09-19T14:12:52;22.20;99.90
2024;DHT22;1016;48.770;9.154;2023-09-19T14:15:18;21.90;99.90
2024;DHT22;1016;48.770;9.154;2023-09-19T14:17:44;22.20;99.90
2024;DHT22;1016;48.770;9.154;2023-09-19T14:20:11;22.20;99.90
2024;DHT22;1016;48.770;9.154;2023-09-19T14:22:37;22.10;99.90
2024;DHT22;1016;48.770;9.154;2023-09-19T14:25:06;22.10;99.90
2024;DHT22;1016;48.770;9.154;2023-09-19T14:30:25;22.10;99.90
2024;DHT22;1016;48.770;9.154;2023-09-19T14:32:54;22.30;99.90
2024;DHT22;1016;48.770;9.154;2023-09-19T14:35:23;22.20;99.90
2024;DHT22;1016;48.770;9.154;2023-09-19T14:37:51;22.10;99.90
2024;DHT22;1016;48.770;9.154;2023-09-19T14:40:22;22.20;99.90
2024;DHT22;1016;48.770;9.154;2023-09-19T14:42:48;22.20;99.90
2024;DHT22;1016;48.770;9.154;2023-09-19T14:45:14;22.30;99.90
2024;DHT22;1016;48.770;9.154;2023-09-19T14:47:47;22.30;99.90
2024;DHT22;1016;48.770;9.154;2023-09-19T14:50:13;22.10;99.90
2024;DHT22;1016;48.770;9.154;2023-09-19T14:52:40;22.20;99.90
2024;DHT22;1016;48.770;9.154;2023-09-19T14:55:07;22.20;99.90
2024;DHT22;1016;48.770;9.154;2023-09-19T14:57:35;22.20;99.90
2024;DHT22;1016;48.770;9.154;2023-09-19T15:00:06;22.20;99.90
2024;DHT22;1016;48.770;9.154;2023-09-19T15:02:38;22.20;99.90
2024;DHT22;1016;48.770;9.154;2023-09-19T15:05:06;22.10;99.90
2024;DHT22;1016;48.770;9.154;2023-09-19T15:07:35;22.20;99.90
2024;DHT22;1016;48.770;9.154;2023-09-19T15:10:03;22.20;99.90
2024;DHT22;1016;48.770;9.154;2023-09-19T15:12:28;22.20;99.90
2024;DHT22;1016;48.770;9.154;2023-09-19T15:14:54;22.20;99.90
2024;DHT22;1016;48.770;9.154;2023-09-19T15:17:20;22.20;99.90
2024;DHT22;1016;48.770;9.154;2023-09-19T15:19:46;22.20;99.90
2024;DHT22;1016;48.770;9.154;2023-09-19T15:22:12;22.10;99.90
2024;DHT22;1016;48.770;9.154;2023-09-19T15:24:38;22.20;99.90
2024;DHT22;1016;48.770;9.154;2023-09-19T15:27:12;22.30;99.90
2024;DHT22;1016;48.770;9.154;2023-09-19T15:29:50;22.20;99.90
2024;DHT22;1016;48.770;9.154;2023-09-19T15:32:16;22.20;99.90
2024;DHT22;1016;48.770;9.154;2023-09-19T15:34:41;22.20;99.90
2024;DHT22;1016;48.770;9.154;2023-09-19T15:37:08;22.20;99.90
2024;DHT22;1016;48.770;9.154;2023-09-19T15:39:40;22.20;99.90
2024;DHT22;1016;48.770;9.154;2023-09-19T15:42:09;22.20;99.90
2024;DHT22;1016;48.770;9.154;2023-09-19T15:44:38;22.20;99.90
2024;DHT22;1016;48.770;9.154;2023-09-19T15:47:13;22.20;99.90
2024;DHT22;1016;48.770;9.154;2023-09-19T15:49:39;22.20;99.90
2024;DHT22;1016;48.770;9.154;2023-09-19T15:52:05;22.30;99.90
2024;DHT22;1016;48.770;9.154;2023-09-19T15:54:30;22.20;99.90
2024;DHT22;1016;48.770;9.154;2023-09-19T15:56:59;22.20;99.90
2024;DHT22;1016;48.770;9.154;2023-09-19T15:59:25;22.20;99.90
2024;DHT22;1016;48.770;9.154;2023-09-19T16:01:52;22.20;99.90
2024;DHT22;1016;48.770;9.154;2023-09-19T16:04:18;22.20;99.90
2024;DHT22;1016;48.770;9.154;2023-09-19T16:06:45;22.20;99.90
2024;DHT22;1016;48.770;9.154;2023-09-19T16:09:11;22.10;99.90
2024;DHT22;1016;48.770;9.154;2023-09-19T16:18:26;22.10;99.90
2024;DHT22;1016;48.770;9.154;2023-09-19T16:20:52;22.20;99.90
2024;DHT22;1016;48.770;9.154;2023-09-19T16:23:18;22.10;99.90
2024;DHT22;1016;48.770;9.154;2023-09-19T16:25:44;22.10;99.90
2024;DHT22;1016;48.770;9.154;2023-09-19T16:28:11;22.20;99.90
2024;DHT22;1016;48.770;9.154;2023-09-19T16:30:39;22.10;99.90
2024;DHT22;1016;48.770;9.154;2023-09-19T16:33:05;22.10;99.90
2024;DHT22;1016;48.770;9.154;2023-09-19T16:35:37;22.20;99.90
2024;DHT22;1016;48.770;9.154;2023-09-19T16:38:03;22.30;99.90
2024;DHT22;1016;48.770;9.154;2023-09-19T16:40:29;22.10;99.90
2024;DHT22;1016;48.770;9.154;2023-09-19T16:42:55;22.20;99.90
2024;DHT22;1016;48.770;9.154;2023-09-19T16:45:20;21.90;99.90
2024;DHT22;1016;48.770;9.154;2023-09-19T16:47:47;22.00;99.90
2024;DHT22;1016;48.770;9.154;2023-09-19T16:50:13;22.20;99.90
2024;DHT22;1016;48.770;9.154;2023-09-19T16:52:39;22.20;99.90
2024;DHT22;1016;48.770;9.154;2023-09-19T16:55:05;22.10;99.90
2024;DHT22;1016;48.770;9.154;2023-09-19T16:57:31;22.10;99.90
2024;DHT22;1016;48.770;9.154;2023-09-19T17:00:00;22.20;99.90
2024;DHT22;1016;48.770;9.154;2023-09-19T17:02:25;22.10;99.90
2024;DHT22;1016;48.770;9.154;2023-09-19T17:04:53;22.20;99.90
2024;DHT22;1016;48.770;9.154;2023-09-19T17:07:19;22.20;99.90
2024;DHT22;1016;48.770;9.154;2023-09-19T17:09:45;22.10;99.90
2024;DHT22;1016;48.770;9.154;2023-09-19T17:12:11;22.20;99.90
2024;DHT22;1016;48.770;9.154;2023-09-19T17:14:39;22.10;99.90
2024;DHT22;1016;48.770;9.154;2023-09-19T17:17:05;22.10;99.90
2024;DHT22;1016;48.770;9.154;2023-09-19T17:19:35;22.10;99.90
2024;DHT22;1016;48.770;9.154;2023-09-19T17:22:01;22.20;99.90
2024;DHT22;1016;48.770;9.154;2023-09-19T17:24:27;22.20;99.90
2024;DHT22;1016;48.770;9.154;2023-09-19T17:26:52;22.00;99.90